Cummings, North Dakota
Current Conditions -  °F | °C
As of 5:53 PM on Monday 24 Nov 2014 (Local Time) from KGFK Reporting Station
Clear Clear  
Wind Chill:   Ceiling: Unl
Heat Index: 12°   Visibility: 10mi
Dew Point:   Wind: 8mph
Humidity: 73%   Direction: 340°NNW
Pressure: 29.96"   Gusts: NA
Location:  47.51°N, 97.08°W
Report Text: KGFK 242353Z 34007KT 10SM CLR M11/M15 A2996 RMK AO2 SLP166 T11111150 11072 21111 51034
Loading
Personal Weather Stations






























Interactive Weather Map New forecast layout! Learn more

10-Day Weather Forecast

Advertisements
Track Severe Weather on mobile